Colorado AWOS List, Phone Numbers, Maps

USA |  
| Search AWOS

Rocky Mountain States: Montana | Wyoming | Colorado | New Mexico

Complete weather reports: Colorado

Legend: KFNL = METAR available Follow your local AWOS on AV Mobile = METAR available on AV Mobile
Station Colorado Location Frequency Phone
KAKOFAA ID AKO, ASOS, KAKO 100753Z AUTO 17012KT 10SM FEW120 M05/M08 A3004 RMK AO2 SLP209 T10501083 Follow KAKO on AV Mobile COLORADO PLAINS REGIONAL 135.475 970-345-2320
KALSFAA ID ALS, ASOS, KALS 100752Z AUTO 01004KT 10SM CLR M13/M15 A3023 Follow KALS on AV Mobile SAN LUIS VALLEY REGIONAL 135.175 719-589-5669
KASEFAA ID ASE, ASOS, KASE 100753Z AUTO 22005KT 10SM FEW085 M02/M05 A3016 Follow KASE on AV Mobile ASPEN-PITKIN COUNTY AIRPORT 120.400 970-925-9168
KBKFFAA ID BKF, KBKF 100758Z 20007KT 10SM FEW090 SCT220 M04/M05 A3003 Follow KBKF on AV Mobile Aurora, Buckley Air Force Base Airport
K7BMFAA ID 7BM, AWOS-3, K7BM 100834Z AUTO 31010G26KT 240V360 10SM CLR 02/M08 A3008 RMK AO2 Follow K7BM on AV Mobile Cottonwood Pass 132.050 303-512-4919
KBDUFAA ID BDU, AWOS-3, KBDU 100835Z AUTO 33007KT 282V042 7SM CLR M05/M07 A3001 RMK AO2 Follow KBDU on AV Mobile Boulder Municipal Airport 118.825 303-541-9540
KAEJFAA ID AEJ, AWOS-3, KAEJ 100835Z AUTO 29008G16KT 10SM SCT080 03/M09 A3012 RMK AO2 T00341086 Follow KAEJ on AV Mobile Central Colorado Regional Airport 132.925 719-395-2599
KITRFAA ID ITR, ASOS, KITR 100753Z AUTO 16009KT 10SM CLR M04/M08 A3010 RMK AO2 SLP207 T10441078 Follow KITR on AV Mobile Kit Carson County Airport 135.225 719-346-7036
K1V6FAA ID 1V6, AWOS-3, K1V6 100835Z AUTO 00000KT 10SM CLR M03/M08 A3007 RMK AO2 Follow K1V6 on AV Mobile CANON CITY 120.025
KAFFFAA ID AFF, KAFF 100758Z AUTO 07004KT 10SM CLR M06/M09 A3006 RMK AO2 SLP193 T10621086 Follow KAFF on AV Mobile Air Force Academy
KCOSFAA ID COS, ASOS, KCOS 100754Z 30003KT 10SM SCT230 BKN250 M03/M08 A3009 Follow KCOS on AV Mobile COLORADO SPRINGS MUNI 125.000 719-637-9696
KFLYFAA ID FLY, AWOS-3PT, KFLY 100835Z AUTO 25006KT 10SM CLR M04/M09 A3006 RMK AO2 T10421086 Follow KFLY on AV Mobile Meadowlake Airport, Peyton, CO 118.450 719-683-5371
KCCUFAA ID CCU, AWOS-3, KCCU 100836Z AUTO 28015KT 7SM CLR M03/M10 A3020 RMK AO2 Follow KCCU on AV Mobile Copper Mountain, Red Cliff Pass 118.075 970-968-1715
KCEZFAA ID CEZ, ASOS, KCEZ 100753Z AUTO 07006KT 10SM CLR M05/M06 A3025 RMK AO2 SLP242 T10501061 Follow KCEZ on AV Mobile CORTEZ MONTEZUMA COUNTY AIRPORT 135.625 970-564-0193
KCAGFAA ID CAG, ASOS, KCAG 100753Z AUTO 11006KT 10SM SCT120 M04/M06 A3010 Follow KCAG on AV Mobile CRAIG MOFFAT AIRPORT 135.425 970-824-2373
KRCVFAA ID RCV, AWOS-3PT, KRCV 250900Z AUTO 27010KT 10SM CLR M06/M16 A3048 RMK AO2 T10611156 Follow KRCV on AV Mobile DEL NORTE 118.275 719-657-9017
KAJZFAA ID AJZ, AWOS-3, KAJZ 100735Z AUTO 06004KT 10SM CLR M02/M07 A3023 RMK AO2 T10241067 Follow KAJZ on AV Mobile Blake Field Airport 134.000 970-874-3251
KDNRICAO ID KDNR Denver / Stapleton International, Co.
KAPAFAA ID APA, ASOS, KAPA 100753Z 20006KT 6SM BR FEW100 SCT200 M04/M06 A3002 RMK AO2 SLP174 T10441061 Follow KAPA on AV Mobile DENVER CENTENNIAL AIRPORT 120.300 303-706-9098
KDENFAA ID DEN, ASOS, KDEN 100753Z 24014KT 5SM BR FEW090 SCT200 M05/M07 A3001 Follow KDEN on AV Mobile DENVER INTERNATIONAL AIRPORT 125.600 303-342-0838
KFTGFAA ID FTG, AWOS-3, KFTG 100835Z AUTO 00000KT 7SM CLR M04/M05 A3002 RMK AO2 Follow KFTG on AV Mobile Front Range Airport 119.025 303-261-9104
KBJCFAA ID BJC, AWOS-3, KBJC 100836Z AUTO 18012KT 161V221 7SM CLR M05/M06 A2999 Follow KBJC on AV Mobile Rocky Mountain Metro Airport 126.250 720-887-8067
K4V5ICAO ID K4V5 Durango Aviation Weather Reporting Station
KDROFAA ID DRO, ASOS, KDRO 100753Z AUTO 06003KT 10SM CLR M05/M08 A3027 RMK AO2 SLP267 T10501083 Follow KDRO on AV Mobile DURANGO-LA PLATA COUNTY AIRPORT 120.625 970-259-3579
KEGEFAA ID EGE, AWOS-3, KEGE 100756Z AUTO 17004KT 10SM CLR M06/M07 A3019 Follow KEGE on AV Mobile Eagle County Regional 135.575 970-524-7386
CO90FAA ID CO90, ASOS, KSTF 100901Z AUTO 00000KT 10SM CLR M05/M06 A3058 RMK AO2 Follow  on AV Mobile USAF Academy Bullseye Aux Airstrip 118.325 719-683-3346
K0COFAA ID 0CO, AWOS-3, K0CO 100839Z AUTO 27027KT 4SM -SN BKN036 BKN070 M08/M15 A3013 RMK AO2 Follow K0CO on AV Mobile EMPIRE 134.325
KEIKFAA ID EIK, AWOS-3, KEIK 100834Z AUTO 00000KT 5SM BR CLR M08/M09 A3002 RMK AO2 T10851094 Follow KEIK on AV Mobile Erie Municipal Airport 133.825 303-604-4339
KFCSFAA ID FCS, KFCS 100758Z AUTO 31001KT 10SM CLR M04/M10 A3006 RMK AO2 SLP210 T10431099 $ Follow KFCS on AV Mobile Fort Carson
KFCLICAO ID KFCL Fort Collins Supplementary Aviation Weather Reporting Station
KFNLFAA ID FNL, AWOS-3, KFNL 100835Z AUTO 11006KT 7SM CLR M08/M09 A3003 RMK AO1 Follow KFNL on AV Mobile Fort Collins/Loveland, Fort Collins-Loveland Municipal Airport 135.075 970-669-9187
KFMMFAA ID FMM, AWOS-3, KFMM 100835Z AUTO 34008KT 10SM BKN110 M07/M09 A3007 RMK AO2 T10721092 Follow KFMM on AV Mobile Fort Morgan Municipal Airport 132.950 970-867-4823
KGNBFAA ID GNB, AWOS-3PT Granby-Grand County Airport 119.925 970-887-1803
KGJTFAA ID GJT, ASOS, KGJT 100753Z AUTO 06004KT 10SM CLR M05/M07 A3020 Follow KGJT on AV Mobile GRAND JUNCTION WALKER FIELD 118.550 970-245-7881
KGXYFAA ID GXY, AWOS-3, KGXY 100756Z AUTO 02006KT 10SM CLR M08/M10 A3006 RMK AO2 SLP233 T10831100 FZRANO Follow KGXY on AV Mobile Greeley, Greeley-Weld County Airport 135.175 970-352-3511
K2V9ICAO ID K2V9 Gunnison Aviation Weather Reporting Station
KGUCFAA ID GUC, AWOS-3, KGUC 100756Z AUTO 00000KT 9SM CLR M12/M13 A3027 RMK AO2 SLP310 T11221133 FZRANO Follow KGUC on AV Mobile Gunnison, Gunnison-Crested Butte Regional Airport 135.075 970-641-3240
KHDNFAA ID HDN, AWOS-3, KHDN 100835Z AUTO 08006KT 10SM OVC120 M05/M08 A3010 RMK AO1 Follow KHDN on AV Mobile Hayden, Yampa Valley Airport 119.275 970-276-3690
KHEQFAA ID HEQ, AWOS-3, KHEQ 100835Z AUTO 07006KT 10SM CLR M06/M08 A3011 RMK AO2 Follow KHEQ on AV Mobile Holyoke Airport 119.275 970-854-3679
K20VFAA ID 20V, AWOS-3, K20V 100835Z AUTO 00000KT 10SM BKN080 BKN120 03/M05 A3012 RMK AO2 Follow K20V on AV Mobile Kremmling, Mc Elroy Airfield 118.425 970-724-9659
KLHXFAA ID LHX, ASOS, KLHX 100753Z AUTO 28008KT 10SM CLR M07/M12 A3011 RMK AO2 SLP218 T10671117 Follow KLHX on AV Mobile LA JUNTA MUNICIPAL AIRPORT 135.525 719-384-5961
KVTPFAA ID VTP, AWOS-3, KVTP 100832Z AUTO 03022G32KT 10SM CLR M03/M07 A3016 RMK AO2 Follow KVTP on AV Mobile La Veta Mountain, La Veta Pass 119.925 719-587-3120
KLAAFAA ID LAA, ASOS, KLAA 100753Z AUTO 11007KT 8SM CLR M06/M08 A3009 RMK AO2 SLP209 T10561078 TSNO $ Follow KLAA on AV Mobile LAMAR MUNICIPAL AIRPORT 135.625 719-336-3854
KLXVFAA ID LXV, ASOS, KLXV 100753Z AUTO 03007KT 10SM CLR M03/M10 A3016 Follow KLXV on AV Mobile LEADVILLE LAKE CO 118.375 719-486-2735
KLICFAA ID LIC, ASOS, KLIC 100755Z AUTO 00000KT 10SM CLR M11/M12 A3007 RMK AO2 SLP202 T11061117 Follow KLIC on AV Mobile LIMON MUNICIPAL AIRPORT 121.125 719-775-0515
KLMOFAA ID LMO, AWOS-3, KLMO 100834Z AUTO 00000KT 7SM CLR M09/M11 A3005 RMK AO2 T10881106 Follow KLMO on AV Mobile Vance Brand Airport 120.000 303-684-7545
KEEOFAA ID EEO, ASOS, KEEO 100753Z AUTO 26009G16KT 10SM FEW080 03/M05 A3012 RMK AO2 SLP187 T00281050 Follow KEEO on AV Mobile MEEKER AIRPORT 135.525 970-878-5036
KMYPFAA ID MYP, AWOS-3, KMYP 100833Z AUTO 27030G34KT M06/M08 A3032 RMK AO2 PWINO Follow KMYP on AV Mobile Salida Mountain, Monarch Pass 124.175 719-539-4436
KMTJFAA ID MTJ, ASOS, KMTJ 100753Z AUTO 12006KT 10SM CLR M03/M06 A3022 RMK AO2 SLP235 T10281056 Follow KMTJ on AV Mobile MONTROSE REGIONAL AIRPORT 135.225 970-249-1534
KMNHFAA ID MNH, AWOS-3, KMNH 100838Z AUTO 18006KT 10SM CLR M01/M07 A3005 RMK AO2 Follow KMNH on AV Mobile Elbert Mountain, Monument Pass 134.375 303-648-3479
KCRVICAO ID KCRV Nederland Mountain, Corona Pass
KAIBFAA ID AIB, AWOS-3, KAIB 100835Z AUTO 12003KT 10SM CLR M01/M05 A3024 RMK AO2 Follow KAIB on AV Mobile Hopkins Field Airport 132.525 970-864-2325
KPSOFAA ID PSO, AWOS-3, KPSO 100835Z AUTO 00000KT 10SM CLR M07/M08 A3029 RMK AO2 T10681077 Follow KPSO on AV Mobile Stevens Field Airport 127.175 970-731-0365
KPEFICAO ID KPEF Peterson Air Force Base
KPUXICAO ID KPUX Pueblo NEXRAD
KPUBFAA ID PUB, ASOS, KPUB 100753Z AUTO 27005KT 10SM CLR M07/M12 A3010 Follow KPUB on AV Mobile PUEBLO MEMORIAL AIRPORT 125.250 719-948-2803
4V0FAA ID 4V0, AWOS-3PT, KSTF 100901Z AUTO 00000KT 10SM CLR M05/M06 A3058 RMK AO2 Follow  on AV Mobile RANGELY 119.025 970-675-2339
K1V1ICAO ID K1V1 Rifle Aviation Weather Reporting Station
KRILFAA ID RIL, ASOS, KRIL 100753Z AUTO 12004KT 10SM OVC090 M04/M07 A3020 RMK AO2 SLP252 T10441067 Follow KRIL on AV Mobile RIFLE GARFIELD COUNTY RGNL 135.275 970-625-2206
K04VFAA ID 04V, AWOS-3, K04V 100829Z AUTO 34007KT 10SM CLR M08/M11 A3024 RMK AO2 Follow K04V on AV Mobile Saguache, Saguache Municipal Airport 118.625 719-655-2229
KS29ICAO ID KS29 Salida
KANKFAA ID ANK, AWOS-3, KANK 100835Z AUTO 22014G20KT 10SM CLR 06/M08 A3019 RMK AO1 T00571083 Follow KANK on AV Mobile Harriet Alexander Field Airport 133.850 719-539-5268
KSPDICAO ID KSPD, KSPD 100756Z AUTO 19004KT M07/M07 A3010 RMK AO1 SLP203 T10671072 $ Follow KSPD on AV Mobile SPRINGFIELD COMANCHE NATL
KSBSFAA ID SBS, AWOS-3, KSBS 100835Z AUTO 00000KT 4SM SCT080 OVC120 M05/M06 A3011 RMK AO1 T10551061 Follow KSBS on AV Mobile Steamboat Springs 118.325 970-879-7794
KSTKFAA ID STK, AWOS-3, KSTK 100830Z AUTO 01006KT 10SM BKN110 M07/M09 A3009 RMK AO2 Follow KSTK on AV Mobile Sterling Municipal Airport 118.525 970-526-3009
K5SMFAA ID 5SM, AWOS-3, K5SM 100832Z AUTO 22015G24KT 10SM SCT043 M05/M07 A3022 RMK AO2 TSNO Follow K5SM on AV Mobile Sunlight 126.075 970-384-3380
KTEXFAA ID TEX, AWOS-3, KTEX 100835Z AUTO 13004KT 10SM CLR 00/M07 A3027 RMK AO2 T00001075 Follow KTEX on AV Mobile Telluride, Telluride Regional Airport 118.325 970-728-1534
KTADFAA ID TAD, ASOS, KTAD 100754Z AUTO 25009KT 10SM CLR 03/M08 A3008 RMK AO2 SLP158 T00281083 Follow KTAD on AV Mobile Trinidad, Perry Stokes Airport 119.025 719-845-1156
K33VFAA ID 33V, AWOS-3, K33V 100835Z AUTO 23010G17KT 10SM 01/M06 A3008 RMK AO2 Follow K33V on AV Mobile WALDEN 118.625 970-723-4513
4V1FAA ID 4V1, AWOS-3, KSTF 100901Z AUTO 00000KT 10SM CLR M05/M06 A3058 RMK AO2 Follow  on AV Mobile Spanish Peaks Airfield 123.600 719-738-1053
K4BMFAA ID 4BM, AWOS-3, K4BM 100836Z AUTO 26013G29KT 10SM CLR M03/M11 A3012 RMK AO2 Follow K4BM on AV Mobile Wilkerson Pass 132.3 303-512-4418
KC96ICAO ID KC96 Winter Park Resort
KCPWFAA ID CPW, AWOS-3, KCPW 100834Z AUTO 21008KT 10SM CLR M07/M09 A3035 RMK AO2 Follow KCPW on AV Mobile Pagosa Springs, Wolf Creek Pass 121.125 970-264-2180
K2V5FAA ID 2V5, AWOS-3, K2V5 100635Z AUTO 12005KT 10SM OVC110 M06/M08 A3017 RMK AO2 Follow K2V5 on AV Mobile Wray Municipal Airport 118.250 970-332-5930
2V6FAA ID 2V6, AWOS-3, KSTF 100901Z AUTO 00000KT 10SM CLR M05/M06 A3058 RMK AO2 Follow  on AV Mobile YUMA 135.375 970-848-3007

Click on the AV Mobile icon AV Mobile icon by any station to follow that AWOS feed on AirportView.net Mobile.

Legend: Commercial service airport with AWOS Commercial Airport AWOSNon-Commercial service airport with AWOS Non-Commercial Airport AWOS
Airport AWOS - Click symbol for weather report Fort Morgan Municipal Airport KFMM 100835Z AUTO 34008KT 10SM BKN110 M07/M09 A3007 RMK AO2 T10721092 Hopkins Field Airport KAIB 100835Z AUTO 12003KT 10SM CLR M01/M05 A3024 RMK AO2 Telluride, Telluride Regional Airport KTEX 100835Z AUTO 13004KT 10SM CLR 00/M07 A3027 RMK AO2 T00001075 Greeley, Greeley-Weld County Airport KGXY 100756Z AUTO 02006KT 10SM CLR M08/M10 A3006 RMK AO2 SLP233 T10831100 FZRANO Front Range Airport KFTG 100835Z AUTO 00000KT 7SM CLR M04/M05 A3002 RMK AO2 Rocky Mountain Metro Airport KBJC 100836Z AUTO 18012KT 161V221 7SM CLR M05/M06 A2999 DENVER CENTENNIAL AIRPORT KAPA 100753Z 20006KT 6SM BR FEW100 SCT200 M04/M06 A3002 RMK AO2 SLP174 T10441061 DENVER INTERNATIONAL AIRPORT KDEN 100753Z 24014KT 5SM BR FEW090 SCT200 M05/M07 A3001 Fort Collins/Loveland, Fort Collins-Loveland Municipal Airport KFNL 100835Z AUTO 11006KT 7SM CLR M08/M09 A3003 RMK AO1 Boulder Municipal Airport KBDU 100835Z AUTO 33007KT 282V042 7SM CLR M05/M07 A3001 RMK AO2 Vance Brand Airport KLMO 100834Z AUTO 00000KT 7SM CLR M09/M11 A3005 RMK AO2 T10881106 Sterling Municipal Airport KSTK 100830Z AUTO 01006KT 10SM BKN110 M07/M09 A3009 RMK AO2 Holyoke Airport KHEQ 100835Z AUTO 07006KT 10SM CLR M06/M08 A3011 RMK AO2 COLORADO PLAINS REGIONAL KAKO 100753Z AUTO 17012KT 10SM FEW120 M05/M08 A3004 RMK AO2 SLP209 T10501083 Kit Carson County Airport KITR 100753Z AUTO 16009KT 10SM CLR M04/M08 A3010 RMK AO2 SLP207 T10441078 LIMON MUNICIPAL AIRPORT KLIC 100755Z AUTO 00000KT 10SM CLR M11/M12 A3007 RMK AO2 SLP202 T11061117 COLORADO SPRINGS MUNI KCOS 100754Z 30003KT 10SM SCT230 BKN250 M03/M08 A3009 LAMAR MUNICIPAL AIRPORT KLAA 100753Z AUTO 11007KT 8SM CLR M06/M08 A3009 RMK AO2 SLP209 T10561078 TSNO $ LA JUNTA MUNICIPAL AIRPORT KLHX 100753Z AUTO 28008KT 10SM CLR M07/M12 A3011 RMK AO2 SLP218 T10671117 Trinidad, Perry Stokes Airport KTAD 100754Z AUTO 25009KT 10SM CLR 03/M08 A3008 RMK AO2 SLP158 T00281083 PUEBLO MEMORIAL AIRPORT KPUB 100753Z AUTO 27005KT 10SM CLR M07/M12 A3010 CANON CITY 1V6 SAN LUIS VALLEY REGIONAL KALS 100752Z AUTO 01004KT 10SM CLR M13/M15 A3023 Saguache, Saguache Municipal Airport K04V 100829Z AUTO 34007KT 10SM CLR M08/M11 A3024 RMK AO2 Granby-Grand County Airport KGNB WALDEN 33V Steamboat Springs KSBS 100835Z AUTO 00000KT 4SM SCT080 OVC120 M05/M06 A3011 RMK AO1 T10551061 Hayden, Yampa Valley Airport KHDN 100835Z AUTO 08006KT 10SM OVC120 M05/M08 A3010 RMK AO1 Kremmling, Mc Elroy Airfield K20V 100835Z AUTO 00000KT 10SM BKN080 BKN120 03/M05 A3012 RMK AO2 LEADVILLE LAKE CO KLXV 100753Z AUTO 03007KT 10SM CLR M03/M10 A3016 Eagle County Regional KEGE 100756Z AUTO 17004KT 10SM CLR M06/M07 A3019 CRAIG MOFFAT AIRPORT KCAG 100753Z AUTO 11006KT 10SM SCT120 M04/M06 A3010 MEEKER AIRPORT KEEO 100753Z AUTO 26009G16KT 10SM FEW080 03/M05 A3012 RMK AO2 SLP187 T00281050 ASPEN-PITKIN COUNTY AIRPORT KASE 100753Z AUTO 22005KT 10SM FEW085 M02/M05 A3016 Gunnison, Gunnison-Crested Butte Regional Airport KGUC 100756Z AUTO 00000KT 9SM CLR M12/M13 A3027 RMK AO2 SLP310 T11221133 FZRANO DURANGO-LA PLATA COUNTY AIRPORT  KDRO 100753Z AUTO 06003KT 10SM CLR M05/M08 A3027 RMK AO2 SLP267 T10501083 Stevens Field Airport KPSO 100835Z AUTO 00000KT 10SM CLR M07/M08 A3029 RMK AO2 T10681077 CORTEZ MONTEZUMA COUNTY AIRPORT  KCEZ 100753Z AUTO 07006KT 10SM CLR M05/M06 A3025 RMK AO2 SLP242 T10501061 MONTROSE REGIONAL AIRPORT KMTJ 100753Z AUTO 12006KT 10SM CLR M03/M06 A3022 RMK AO2 SLP235 T10281056 RIFLE GARFIELD COUNTY RGNL KRIL 100753Z AUTO 12004KT 10SM OVC090 M04/M07 A3020 RMK AO2 SLP252 T10441067 GRAND JUNCTION WALKER FIELD KGJT 100753Z AUTO 06004KT 10SM CLR M05/M07 A3020 Blake Field Airport KAJZ 100735Z AUTO 06004KT 10SM CLR M02/M07 A3023 RMK AO2 T10241067 Central Colorado Regional Airport KAEJ 100835Z AUTO 29008G16KT 10SM SCT080 03/M09 A3012 RMK AO2 T00341086 Harriet Alexander Field Airport KANK 100835Z AUTO 22014G20KT 10SM CLR 06/M08 A3019 RMK AO1 T00571083 Erie Municipal Airport KEIK 100834Z AUTO 00000KT 5SM BR CLR M08/M09 A3002 RMK AO2 T10851094 Wray Municipal Airport K2V5 100635Z AUTO 12005KT 10SM OVC110 M06/M08 A3017 RMK AO2
Legend: High Mountain AWOS Mountain Pass AWOS
Mountain Pass AWOS - Click symbol for weather report Pagosa Springs, Wolf Creek Pass KCPW 100834Z AUTO 21008KT 10SM CLR M07/M09 A3035 RMK AO2 Saguache, Saguache Municipal Airport K04V 100829Z AUTO 34007KT 10SM CLR M08/M11 A3024 RMK AO2 Kremmling, Mc Elroy Airfield K20V 100835Z AUTO 00000KT 10SM BKN080 BKN120 03/M05 A3012 RMK AO2 La Veta Mountain, La Veta Pass KVTP 100832Z AUTO 03022G32KT 10SM CLR M03/M07 A3016 RMK AO2 Salida Mountain, Monarch Pass KMYP 100833Z AUTO 27030G34KT M06/M08 A3032 RMK AO2 PWINO Cottonwood Pass K7BM 100834Z AUTO 31010G26KT 240V360 10SM CLR 02/M08 A3008 RMK AO2 Elbert Mountain, Monument Pass KMNH 100838Z AUTO 18006KT 10SM CLR M01/M07 A3005 RMK AO2 Wilkerson Pass K4BM 100836Z AUTO 26013G29KT 10SM CLR M03/M11 A3012 RMK AO2 Copper Mountain, Red Cliff Pass KCCU 100836Z AUTO 28015KT 7SM CLR M03/M10 A3020 RMK AO2 EMPIRE 0CO Sunlight K5SM 100832Z AUTO 22015G24KT 10SM SCT043 M05/M07 A3022 RMK AO2 TSNO
Garmin Weather Avemco Insurance Company